Lanark Village, FL (32323)

3:45 AM EST on March 01, 2015 (GMT -0500)
FSU Coastal and Marine Lab | Change Station
CLOSE
Current Station
Personal Weather Station
Location: Panacea, FL
Elevation: 22 ft
Nearby Weather Stations
Active Advisory: Flood Warning

Elev 22 ft 29.92 °N, 84.51 °W | Updated 4 minutes ago

Overcast
Overcast
48.8 °F
Feels Like 49 °F
N
2.0
Wind Variable Wind from NNE
Gusts 12.0 mph

Today
High -- | Low -- °F
--% Chance of Precip.
Yesterday
High -- | Low -- °F
Precip. -- in
7:04 AM 6:37 PM
Waxing Gibbous, 83% visible
Pressure 30.36 in
Visibility 10.0 miles
Clouds Overcast 500 ft
Windchill 49 °F
Dew Point 48 °F
Humidity 97%
Rainfall 0.00 in
Snow Depth Not available.
UV 0.0 out of 12
Pollen 8.10 out of 12
Air Quality Not available.
Flu Activity Not available.
METAR KAAF 010753Z AUTO 06008KT 10SM OVC005 11/09 A3036 RMK AO2 SLP281 T01060089

More Conditions Fewer Conditions

Pressure 30.36 in
Visibility 10.0 miles
Clouds Overcast 500 ft
Windchill 49 °F
Dew Point 48 °F
Humidity 97%
Rainfall 0.00 in
Snow Depth Not available.
UV 0.0 out of 12
Pollen 8.10 out of 12
Air Quality Not available.
Flu Activity Not available.
METAR KAAF 010753Z AUTO 06008KT 10SM OVC005 11/09 A3036 RMK AO2 SLP281 T01060089

More Conditions Fewer Conditions

10-Day Weather Forecast

Almanac

Astronomy

Mar. 01, 2015 Rise Set
Actual Time
Civil Twilight
Nautical Twilight
Astronomical Twilight
Moon
Length of Visible Light
Length of Day
Tomorrow will be .
, % of the Moon is Illuminated

Today's Extremes

State Highs State Lows

Community

WunderPhotos

Upload Photos

1,801,350 photos uploaded!

WunderBlogs® & News

Nearby

Air Quality

  Air Quality AQ Index Pollutant
Not available.

Snow Depth

Station Depth Elevation

Earthquake Activity

City Distance Mag. Time & Date
Minimum magnitude displayed is 2.5.

Coastal Water Temperatures

Place Temperature

Nearby Weather Stations

Flood Warning
Statement as of 7:49 PM CST on February 28, 2015

The Flood Warning continues for
the Apalachicola River near Blountstown.
* Until late Sunday night.
* At 7:15 PM Saturday the stage was 16.6 feet.
* Minor flooding is occurring and minor flooding is forecast.
* Flood stage is 15.0 feet.
* Forecast: the river is cresting and will begin to fall overnight.
The river will fall below flood stage by Sunday night.
* Impact: at 15.0 feet: minor lowland flooding begins. This level is
the top of the bank at the Marina.


Lat... Lon 3061 8498 3007 8520 2972 8505 2980 8490 3009 8508 3061 8490